Time;durP1;ratioP1;P1;durP2;ratioP2;P2;SDS_P1;SDS_P2;PMS_P1;PMS_P2;Temp;Humidity;BMP_temperature;BMP_pressure;BME280_temperature;BME280_humidity;BME280_pressure;Samples;Min_cycle;Max_cycle;Signal;HPM_P1;HPM_P2
2022/06/11 00:00:44;;;;;;;6.93;4.83;;;;;;;;;;5102874;28;20210;-63
2022/06/11 00:03:12;;;;;;;5.47;4.67;;;;;;;;;;5105199;28;20315;-64
2022/06/11 00:05:40;;;;;;;8.83;6.63;;;;;;;;;;5105071;28;20196;-64
2022/06/11 00:08:08;;;;;;;11.43;7.00;;;;;;;;;;5105696;28;20195;-63
2022/06/11 00:10:36;;;;;;;12.10;7.63;;;;;;;;;;5106446;28;20287;-63
2022/06/11 00:13:04;;;;;;;8.57;5.17;;;;;;;;;;5101093;28;20231;-63
2022/06/11 00:15:34;;;;;;;5.50;3.50;;;;;;;;;;5104361;28;22102;-65
2022/06/11 00:18:01;;;;;;;7.17;5.43;;;;;;;;;;5111196;27;20220;-65
2022/06/11 00:20:29;;;;;;;5.83;4.97;;;;;;;;;;5108269;27;20334;-64
2022/06/11 00:22:57;;;;;;;5.57;4.27;;;;;;;;;;5102945;27;20276;-64
2022/06/11 00:25:25;;;;;;;8.40;5.50;;;;;;;;;;5110611;27;20260;-63
2022/06/11 00:27:52;;;;;;;11.33;5.90;;;;;;;;;;5103770;27;20238;-63
2022/06/11 00:30:20;;;;;;;9.87;6.23;;;;;;;;;;5108636;27;22316;-63
2022/06/11 00:32:48;;;;;;;9.40;6.10;;;;;;;;;;5109475;27;20212;-64
2022/06/11 00:35:16;;;;;;;8.83;5.37;;;;;;;;;;5110516;27;20200;-63
2022/06/11 00:37:44;;;;;;;7.53;5.30;;;;;;;;;;5108998;27;20714;-64
2022/06/11 00:40:16;;;;;;;7.13;5.10;;;;;;;;;;5107572;27;20582;-64
2022/06/11 00:42:44;;;;;;;7.90;4.67;;;;;;;;;;5115119;27;20219;-63
2022/06/11 00:45:21;;;;;;;7.03;5.13;;;;;;;;;;5101377;27;20196;-63
2022/06/11 00:47:52;;;;;;;6.90;4.90;;;;;;;;;;5106669;27;20207;-63
2022/06/11 00:50:46;;;;;;;7.70;4.73;;;;;;;;;;5102044;27;20207;-64
2022/06/11 00:53:24;;;;;;;9.53;5.20;;;;;;;;;;5103199;27;20240;-63
2022/06/11 00:55:52;;;;;;;7.03;4.00;;;;;;;;;;5109665;27;21561;-63
2022/06/11 00:58:22;;;;;;;5.77;4.17;;;;;;;;;;5108242;27;20207;-63
2022/06/11 01:00:52;;;;;;;4.10;3.20;;;;;;;;;;5108325;27;20199;-63
2022/06/11 01:03:21;;;;;;;3.40;3.07;;;;;;;;;;5109613;27;20311;-65
2022/06/11 01:05:51;;;;;;;4.67;4.10;;;;;;;;;;5104749;27;20211;-65
2022/06/11 01:08:22;;;;;;;4.00;3.60;;;;;;;;;;5110685;27;20230;-65
2022/06/11 01:10:52;;;;;;;7.10;3.50;;;;;;;;;;5100320;27;20949;-65
2022/06/11 01:13:32;;;;;;;3.70;3.00;;;;;;;;;;5107229;27;20227;-65
2022/06/11 01:16:05;;;;;;;3.30;3.00;;;;;;;;;;5106457;27;20207;-66
2022/06/11 01:18:40;;;;;;;3.70;3.40;;;;;;;;;;5104542;27;20735;-65
2022/06/11 01:21:16;;;;;;;4.03;3.50;;;;;;;;;;5124490;27;20680;-64
2022/06/11 01:24:02;;;;;;;4.70;3.33;;;;;;;;;;5104591;27;20226;-63
2022/06/11 01:26:48;;;;;;;4.30;3.53;;;;;;;;;;5107461;27;20645;-64
2022/06/11 01:29:34;;;;;;;4.40;3.47;;;;;;;;;;5101471;27;20339;-65
2022/06/11 01:32:07;;;;;;;5.53;3.83;;;;;;;;;;5102412;27;20215;-65
2022/06/11 01:34:40;;;;;;;3.77;3.40;;;;;;;;;;5124778;27;20227;-65
2022/06/11 01:37:10;;;;;;;4.13;3.37;;;;;;;;;;5101452;27;20207;-65
2022/06/11 01:39:46;;;;;;;4.70;3.53;;;;;;;;;;5107713;27;20334;-64
2022/06/11 01:42:16;;;;;;;3.70;3.40;;;;;;;;;;5109210;27;20276;-63
2022/06/11 01:44:44;;;;;;;5.60;3.93;;;;;;;;;;5107199;27;20220;-64
2022/06/11 01:47:13;;;;;;;4.20;3.90;;;;;;;;;;5108214;27;20260;-64
2022/06/11 01:49:45;;;;;;;4.60;4.10;;;;;;;;;;5108969;27;20196;-63
2022/06/11 01:52:31;;;;;;;3.73;3.13;;;;;;;;;;5106393;27;20220;-64
2022/06/11 01:54:59;;;;;;;3.33;3.03;;;;;;;;;;5111443;27;22944;-63
2022/06/11 01:57:39;;;;;;;3.30;3.00;;;;;;;;;;5109315;27;20256;-64
2022/06/11 02:00:26;;;;;;;3.77;3.37;;;;;;;;;;5110348;27;20214;-64
2022/06/11 02:03:06;;;;;;;3.47;3.20;;;;;;;;;;5109768;27;20278;-66
2022/06/11 02:05:34;;;;;;;4.93;3.50;;;;;;;;;;5108931;27;20204;-65
2022/06/11 02:08:04;;;;;;;4.13;3.70;;;;;;;;;;5110502;27;20195;-66
2022/06/11 02:10:34;;;;;;;4.00;3.60;;;;;;;;;;5105586;27;20218;-63
2022/06/11 02:13:17;;;;;;;3.93;3.50;;;;;;;;;;5113682;27;20693;-66
2022/06/11 02:15:50;;;;;;;3.73;3.20;;;;;;;;;;5109487;27;20203;-66
2022/06/11 02:18:19;;;;;;;3.83;3.53;;;;;;;;;;5118333;27;20200;-64
2022/06/11 02:21:16;;;;;;;4.40;3.83;;;;;;;;;;5102356;27;20229;-66
2022/06/11 02:23:49;;;;;;;5.00;4.00;;;;;;;;;;5084932;27;20228;-63
2022/06/11 02:26:24;;;;;;;4.30;4.00;;;;;;;;;;5124902;27;20226;-64
2022/06/11 02:28:52;;;;;;;4.97;4.00;;;;;;;;;;5107559;27;20613;-64
2022/06/11 02:31:23;;;;;;;4.50;4.10;;;;;;;;;;5105383;27;20192;-65
2022/06/11 02:33:51;;;;;;;4.07;3.63;;;;;;;;;;5107488;27;20204;-64
2022/06/11 02:36:27;;;;;;;4.63;3.63;;;;;;;;;;5109126;27;20204;-64
2022/06/11 02:38:57;;;;;;;4.33;3.93;;;;;;;;;;5110213;27;20634;-63
2022/06/11 02:41:26;;;;;;;3.77;3.47;;;;;;;;;;5109031;27;20233;-64
2022/06/11 02:43:54;;;;;;;5.37;3.87;;;;;;;;;;5124600;27;20246;-64
2022/06/11 02:49:11;;;;;;;3.87;3.47;;;;;;;;;;5120897;27;20207;-64
2022/06/11 02:51:39;;;;;;;4.90;4.20;;;;;;;;;;5106224;27;20258;-63
2022/06/11 02:54:07;;;;;;;4.17;3.87;;;;;;;;;;5104577;27;20211;-66
2022/06/11 02:56:34;;;;;;;4.87;3.60;;;;;;;;;;5106381;27;20302;-65
2022/06/11 02:59:01;;;;;;;4.33;3.93;;;;;;;;;;5105864;27;20583;-63
2022/06/11 03:01:29;;;;;;;4.53;3.67;;;;;;;;;;5103029;27;20310;-65
2022/06/11 03:03:56;;;;;;;3.80;3.50;;;;;;;;;;5109171;27;20725;-64
2022/06/11 03:06:25;;;;;;;4.43;3.70;;;;;;;;;;5095895;27;20200;-65
2022/06/11 03:08:55;;;;;;;3.90;3.60;;;;;;;;;;5102227;27;20219;-64
2022/06/11 03:11:22;;;;;;;3.30;3.10;;;;;;;;;;5105895;27;20204;-65
2022/06/11 03:13:50;;;;;;;3.20;3.00;;;;;;;;;;5099386;27;20207;-65
2022/06/11 03:16:18;;;;;;;4.33;3.17;;;;;;;;;;5119793;27;20199;-64
2022/06/11 03:18:46;;;;;;;3.40;3.20;;;;;;;;;;5101502;27;20221;-64
2022/06/11 03:21:13;;;;;;;3.33;3.03;;;;;;;;;;5102982;27;20235;-64
2022/06/11 03:23:40;;;;;;;3.37;3.17;;;;;;;;;;5102243;27;20317;-63
2022/06/11 03:26:08;;;;;;;3.80;3.43;;;;;;;;;;5105713;27;20208;-63
2022/06/11 03:28:36;;;;;;;3.73;3.43;;;;;;;;;;5101470;27;20200;-64
2022/06/11 03:31:06;;;;;;;3.83;3.53;;;;;;;;;;5116614;27;20199;-64
2022/06/11 03:33:39;;;;;;;4.30;3.93;;;;;;;;;;5101064;27;20645;-64
2022/06/11 03:36:09;;;;;;;5.03;3.93;;;;;;;;;;5103823;27;20256;-64
2022/06/11 03:38:38;;;;;;;4.77;3.50;;;;;;;;;;5102108;27;20198;-63
2022/06/11 03:41:06;;;;;;;4.63;3.80;;;;;;;;;;5107137;27;20295;-63
2022/06/11 03:43:34;;;;;;;4.80;4.23;;;;;;;;;;5106156;27;20252;-63
2022/06/11 03:46:02;;;;;;;5.30;4.07;;;;;;;;;;5106983;27;20203;-63
2022/06/11 03:48:30;;;;;;;4.73;4.20;;;;;;;;;;5104950;28;20203;-64
2022/06/11 03:50:59;;;;;;;4.73;4.30;;;;;;;;;;5103318;27;20204;-63
2022/06/11 03:53:37;;;;;;;5.13;4.10;;;;;;;;;;5105747;27;20311;-62
2022/06/11 03:56:05;;;;;;;4.10;3.80;;;;;;;;;;5107952;28;20195;-63
2022/06/11 03:58:33;;;;;;;4.00;3.60;;;;;;;;;;5105780;28;20658;-63
2022/06/11 04:01:16;;;;;;;4.37;3.90;;;;;;;;;;5103347;27;20196;-63
2022/06/11 04:03:46;;;;;;;4.20;3.70;;;;;;;;;;5099433;28;20203;-64
2022/06/11 04:06:13;;;;;;;6.30;5.20;;;;;;;;;;5101967;28;20553;-64
2022/06/11 04:08:41;;;;;;;7.43;5.20;;;;;;;;;;5100203;28;20418;-62
2022/06/11 04:11:10;;;;;;;7.03;4.43;;;;;;;;;;5118980;27;20335;-64
2022/06/11 04:13:38;;;;;;;5.10;4.50;;;;;;;;;;5100215;28;20207;-64
2022/06/11 04:16:06;;;;;;;3.97;3.60;;;;;;;;;;5105851;28;20207;-63
2022/06/11 04:18:43;;;;;;;3.50;3.20;;;;;;;;;;5101428;28;20207;-63
2022/06/11 04:21:12;;;;;;;5.30;3.60;;;;;;;;;;5097146;27;20229;-64
2022/06/11 04:23:41;;;;;;;3.80;3.40;;;;;;;;;;5104815;27;21927;-63
2022/06/11 04:26:11;;;;;;;5.23;4.23;;;;;;;;;;5098028;28;20219;-63
2022/06/11 04:28:40;;;;;;;4.60;3.87;;;;;;;;;;5095029;28;20223;-63
2022/06/11 04:31:08;;;;;;;4.27;3.93;;;;;;;;;;5094224;28;20204;-64
2022/06/11 04:33:36;;;;;;;5.77;4.43;;;;;;;;;;5096383;28;20283;-64
2022/06/11 04:36:04;;;;;;;5.10;4.60;;;;;;;;;;5123993;27;20236;-62
2022/06/11 04:38:32;;;;;;;4.93;4.53;;;;;;;;;;5105078;27;20215;-63
2022/06/11 04:40:59;;;;;;;4.83;4.23;;;;;;;;;;5105163;27;20204;-64
2022/06/11 04:43:27;;;;;;;5.10;4.63;;;;;;;;;;5116818;27;20211;-65
2022/06/11 04:45:54;;;;;;;7.10;4.77;;;;;;;;;;5110559;28;20246;-65
2022/06/11 04:48:21;;;;;;;4.93;4.53;;;;;;;;;;5111534;28;20199;-65
2022/06/11 04:50:49;;;;;;;5.20;4.73;;;;;;;;;;5112909;28;20198;-65
2022/06/11 04:53:16;;;;;;;5.13;4.63;;;;;;;;;;5112049;28;20228;-65
2022/06/11 04:55:45;;;;;;;5.07;4.67;;;;;;;;;;5112569;28;20257;-65
2022/06/11 04:58:13;;;;;;;5.57;4.57;;;;;;;;;;5112241;28;20200;-65
2022/06/11 05:00:40;;;;;;;4.77;4.37;;;;;;;;;;5112430;28;20526;-64
2022/06/11 05:03:08;;;;;;;5.03;4.03;;;;;;;;;;5131070;27;20295;-65
2022/06/11 05:05:36;;;;;;;5.97;4.20;;;;;;;;;;5116037;27;20649;-65
2022/06/11 05:08:04;;;;;;;4.20;3.80;;;;;;;;;;5115943;27;20665;-65
2022/06/11 05:10:34;;;;;;;4.50;4.10;;;;;;;;;;5116032;27;20218;-65
2022/06/11 05:13:05;;;;;;;5.53;4.40;;;;;;;;;;5116261;27;20219;-64
2022/06/11 05:15:34;;;;;;;4.20;3.80;;;;;;;;;;5116196;27;20244;-65
2022/06/11 05:18:02;;;;;;;4.20;3.90;;;;;;;;;;5116074;27;20210;-65
2022/06/11 05:20:29;;;;;;;4.40;4.07;;;;;;;;;;5116147;27;20203;-66
2022/06/11 05:22:56;;;;;;;4.57;3.87;;;;;;;;;;5115468;27;20253;-63
2022/06/11 05:25:24;;;;;;;4.33;3.70;;;;;;;;;;5115570;27;20220;-63
2022/06/11 05:27:52;;;;;;;6.20;4.50;;;;;;;;;;5115158;27;20253;-64
2022/06/11 05:30:24;;;;;;;7.95;5.95;;;;;;;;;;5113099;27;20141;-64
2022/06/11 05:32:52;;;;;;;6.35;4.97;;;;;;;;;;5115583;27;20223;-64
2022/06/11 05:35:26;;;;;;;13.15;7.75;;;;;;;;;;5115662;27;20665;-64
2022/06/11 05:37:54;;;;;;;12.45;8.90;;;;;;;;;;5114802;27;20216;-64
2022/06/11 05:40:23;;;;;;;10.25;7.55;;;;;;;;;;5115728;27;20196;-65
2022/06/11 05:42:51;;;;;;;7.75;5.10;;;;;;;;;;5115120;27;20314;-65
2022/06/11 05:45:20;;;;;;;3.13;2.58;;;;;;;;;;5115169;27;20257;-65
2022/06/11 05:47:49;;;;;;;2.65;1.90;;;;;;;;;;5115403;27;20226;-66
2022/06/11 05:50:19;;;;;;;1.77;1.67;;;;;;;;;;5115177;27;20207;-64
2022/06/11 05:52:46;;;;;;;2.33;1.52;;;;;;;;;;5115141;27;20307;-64
2022/06/11 05:55:15;;;;;;;1.92;1.70;;;;;;;;;;5114937;27;20215;-64
2022/06/11 05:57:44;;;;;;;2.10;1.55;;;;;;;;;;5115369;27;20203;-66
2022/06/11 06:00:13;;;;;;;1.60;1.50;;;;;;;;;;5115106;27;20206;-65
2022/06/11 06:02:41;;;;;;;2.97;1.60;;;;;;;;;;5112223;27;20222;-67
2022/06/11 06:05:09;;;;;;;1.50;1.35;;;;;;;;;;5111053;28;20236;-65
2022/06/11 06:07:36;;;;;;;1.77;1.60;;;;;;;;;;5114263;27;20298;-65
2022/06/11 06:10:04;;;;;;;2.70;1.65;;;;;;;;;;5111464;28;20543;-65
2022/06/11 06:12:32;;;;;;;1.63;1.52;;;;;;;;;;5114654;27;20235;-65
2022/06/11 06:15:04;;;;;;;2.55;1.52;;;;;;;;;;5113720;27;20207;-65
2022/06/11 06:17:31;;;;;;;2.58;1.40;;;;;;;;;;5114385;27;20229;-66
2022/06/11 06:20:00;;;;;;;1.92;1.58;;;;;;;;;;5114596;27;20208;-65
2022/06/11 06:22:27;;;;;;;2.05;1.85;;;;;;;;;;5114439;27;20227;-65
2022/06/11 06:24:55;;;;;;;2.05;1.88;;;;;;;;;;5114369;27;20223;-65
2022/06/11 06:27:22;;;;;;;1.80;1.70;;;;;;;;;;5113656;27;20195;-65
2022/06/11 06:29:50;;;;;;;2.33;1.75;;;;;;;;;;5109701;28;20207;-65
2022/06/11 06:32:17;;;;;;;2.50;1.55;;;;;;;;;;5110277;28;20224;-65
2022/06/11 06:34:45;;;;;;;6.03;1.90;;;;;;;;;;5110405;28;20629;-65
2022/06/11 06:37:12;;;;;;;2.45;1.80;;;;;;;;;;5113985;27;20211;-65
2022/06/11 06:39:40;;;;;;;1.75;1.65;;;;;;;;;;5110346;28;20207;-64
2022/06/11 06:42:08;;;;;;;2.35;1.63;;;;;;;;;;5110392;28;20285;-65
2022/06/11 06:44:35;;;;;;;1.90;1.60;;;;;;;;;;5111174;28;20278;-64
2022/06/11 06:47:03;;;;;;;5.13;3.85;;;;;;;;;;5113471;27;20203;-65
2022/06/11 06:49:30;;;;;;;2.00;1.90;;;;;;;;;;5113988;27;20209;-66
2022/06/11 06:51:57;;;;;;;2.80;1.80;;;;;;;;;;5113473;27;20224;-66
2022/06/11 06:54:25;;;;;;;1.95;1.73;;;;;;;;;;5113533;27;20199;-66
2022/06/11 06:56:52;;;;;;;1.85;1.70;;;;;;;;;;5113469;27;20256;-66
2022/06/11 06:59:20;;;;;;;1.77;1.60;;;;;;;;;;5113357;27;20204;-65
2022/06/11 07:01:47;;;;;;;2.67;1.67;;;;;;;;;;5109315;28;20220;-66
2022/06/11 07:04:15;;;;;;;2.78;1.52;;;;;;;;;;5105823;27;20665;-64
2022/06/11 07:06:52;;;;;;;1.67;1.30;;;;;;;;;;5114423;27;20203;-65
2022/06/11 07:09:19;;;;;;;2.15;1.50;;;;;;;;;;5112955;27;20192;-65
2022/06/11 07:11:46;;;;;;;2.25;1.50;;;;;;;;;;5112871;27;20591;-65
2022/06/11 07:14:14;;;;;;;2.58;1.50;;;;;;;;;;5113059;27;20208;-66
2022/06/11 07:16:46;;;;;;;1.95;1.58;;;;;;;;;;5113018;27;20200;-65
2022/06/11 07:19:19;;;;;;;1.88;1.35;;;;;;;;;;5113299;27;20315;-65
2022/06/11 07:21:48;;;;;;;3.03;1.60;;;;;;;;;;5131388;27;20617;-66
2022/06/11 07:24:18;;;;;;;1.20;1.20;;;;;;;;;;5113008;27;20834;-66
2022/06/11 07:26:51;;;;;;;2.25;1.30;;;;;;;;;;5113982;27;20287;-65
2022/06/11 07:29:25;;;;;;;2.50;1.80;;;;;;;;;;5112563;27;20203;-66
2022/06/11 07:31:55;;;;;;;1.58;1.38;;;;;;;;;;5112401;27;20223;-66
2022/06/11 07:34:22;;;;;;;4.28;1.63;;;;;;;;;;5113338;27;20602;-65
2022/06/11 07:36:50;;;;;;;1.80;1.70;;;;;;;;;;5112629;27;20200;-67
2022/06/11 07:39:17;;;;;;;3.35;1.65;;;;;;;;;;5109175;28;20548;-66
2022/06/11 07:41:45;;;;;;;2.20;1.40;;;;;;;;;;5110502;28;20276;-66
2022/06/11 07:44:12;;;;;;;3.55;1.58;;;;;;;;;;5109108;28;20722;-65
2022/06/11 07:46:40;;;;;;;1.75;1.50;;;;;;;;;;5109061;28;20227;-66
2022/06/11 07:49:07;;;;;;;1.58;1.48;;;;;;;;;;5109085;28;20223;-66
2022/06/11 07:51:35;;;;;;;1.25;1.15;;;;;;;;;;5109124;28;20253;-66
2022/06/11 07:54:02;;;;;;;1.75;1.30;;;;;;;;;;5112171;28;20251;-66
2022/06/11 07:56:30;;;;;;;2.80;1.40;;;;;;;;;;5112663;28;20246;-65
2022/06/11 07:58:57;;;;;;;1.65;1.40;;;;;;;;;;5112739;28;20211;-66
2022/06/11 08:01:25;;;;;;;1.58;1.45;;;;;;;;;;5100959;28;20269;-66
2022/06/11 08:03:52;;;;;;;3.40;1.58;;;;;;;;;;5091843;28;20268;-66
2022/06/11 08:06:19;;;;;;;2.55;1.42;;;;;;;;;;5093543;28;20224;-65
2022/06/11 08:08:49;;;;;;;2.80;1.63;;;;;;;;;;5108656;28;20225;-66
2022/06/11 08:11:17;;;;;;;1.98;1.50;;;;;;;;;;5113272;27;20236;-66
2022/06/11 08:13:46;;;;;;;1.90;1.48;;;;;;;;;;5130844;28;20199;-66
2022/06/11 08:16:13;;;;;;;1.63;1.48;;;;;;;;;;5112956;28;20208;-66
2022/06/11 08:18:41;;;;;;;1.23;1.13;;;;;;;;;;5112351;28;20264;-66
2022/06/11 08:21:09;;;;;;;1.50;1.40;;;;;;;;;;5112673;27;20207;-65
2022/06/11 08:23:36;;;;;;;3.75;1.70;;;;;;;;;;5112836;28;20294;-66
2022/06/11 08:26:04;;;;;;;1.40;1.30;;;;;;;;;;5112670;28;20250;-66
2022/06/11 08:28:32;;;;;;;1.75;1.40;;;;;;;;;;5111719;28;20256;-65
2022/06/11 08:31:04;;;;;;;3.53;1.58;;;;;;;;;;5119256;28;20196;-66
2022/06/11 08:33:34;;;;;;;2.70;1.55;;;;;;;;;;5112335;28;20210;-66
2022/06/11 08:36:01;;;;;;;2.00;1.48;;;;;;;;;;5112460;28;20288;-65
2022/06/11 08:38:29;;;;;;;3.20;1.40;;;;;;;;;;5129179;27;20215;-65
2022/06/11 08:40:56;;;;;;;2.05;1.80;;;;;;;;;;5116397;27;20200;-65
2022/06/11 08:43:24;;;;;;;3.15;1.50;;;;;;;;;;5116060;27;20607;-66
2022/06/11 08:45:54;;;;;;;2.85;1.75;;;;;;;;;;5116301;27;20666;-65
2022/06/11 08:48:25;;;;;;;1.83;1.33;;;;;;;;;;5116427;27;20237;-66
2022/06/11 08:50:58;;;;;;;1.75;1.25;;;;;;;;;;5116898;27;20543;-65
2022/06/11 08:53:26;;;;;;;3.65;1.40;;;;;;;;;;5115901;27;20219;-65
2022/06/11 08:55:54;;;;;;;1.52;1.40;;;;;;;;;;5116165;27;20199;-66
2022/06/11 08:58:39;;;;;;;3.25;1.40;;;;;;;;;;5116173;27;20207;-66
2022/06/11 09:01:28;;;;;;;3.35;1.80;;;;;;;;;;5116578;27;20204;-65
2022/06/11 09:04:08;;;;;;;2.30;1.17;;;;;;;;;;5116265;27;20283;-66
2022/06/11 09:06:55;;;;;;;2.72;1.58;;;;;;;;;;5113675;27;20719;-65
2022/06/11 09:09:29;;;;;;;2.72;1.60;;;;;;;;;;5112347;28;20249;-66
2022/06/11 09:12:24;;;;;;;2.97;1.48;;;;;;;;;;5112335;28;20748;-67
2022/06/11 09:14:55;;;;;;;2.53;1.75;;;;;;;;;;5112023;28;20668;-66
2022/06/11 09:17:41;;;;;;;1.92;1.70;;;;;;;;;;5112562;28;20822;-65
2022/06/11 09:20:27;;;;;;;1.73;1.40;;;;;;;;;;5115492;27;20218;-67
2022/06/11 09:23:09;;;;;;;1.83;1.40;;;;;;;;;;5114997;27;20628;-67
2022/06/11 09:25:37;;;;;;;2.88;1.30;;;;;;;;;;5115661;27;20233;-66
2022/06/11 09:28:05;;;;;;;1.30;1.20;;;;;;;;;;5113692;27;20199;-64
2022/06/11 09:30:43;;;;;;;2.17;1.20;;;;;;;;;;5114776;27;20666;-65
2022/06/11 09:33:18;;;;;;;1.67;1.30;;;;;;;;;;5115279;27;20248;-65
2022/06/11 09:36:03;;;;;;;1.67;1.30;;;;;;;;;;5113638;27;20218;-66
2022/06/11 09:38:31;;;;;;;3.20;1.42;;;;;;;;;;5113827;27;20230;-64
2022/06/11 09:41:17;;;;;;;2.90;1.50;;;;;;;;;;5116279;27;20675;-65
2022/06/11 09:44:05;;;;;;;1.38;1.27;;;;;;;;;;5114300;27;20681;-65
2022/06/11 09:46:45;;;;;;;1.73;1.42;;;;;;;;;;5065653;27;20223;-66
2022/06/11 09:49:15;;;;;;;1.90;1.27;;;;;;;;;;5110249;28;20320;-66
2022/06/11 09:51:55;;;;;;;1.70;1.40;;;;;;;;;;5111199;28;20229;-65
2022/06/11 09:54:30;;;;;;;1.50;1.40;;;;;;;;;;5126569;27;20226;-65
2022/06/11 09:57:24;;;;;;;1.50;1.10;;;;;;;;;;5116014;27;20329;-64
2022/06/11 09:59:53;;;;;;;2.53;1.52;;;;;;;;;;5092468;28;20597;-65
2022/06/11 10:05:03;;;;;;;1.83;1.42;;;;;;;;;;5133326;27;20203;-66
2022/06/11 10:07:39;;;;;;;2.88;1.17;;;;;;;;;;5113400;27;20211;-65
2022/06/11 10:10:13;;;;;;;1.20;1.10;;;;;;;;;;5114846;27;20219;-65
2022/06/11 10:12:45;;;;;;;1.30;1.20;;;;;;;;;;5123959;27;20265;-66
2022/06/11 10:15:21;;;;;;;2.15;1.20;;;;;;;;;;5111102;28;20196;-66
2022/06/11 10:18:00;;;;;;;2.47;1.40;;;;;;;;;;5112558;27;20200;-66
2022/06/11 10:20:31;;;;;;;1.98;1.10;;;;;;;;;;5114069;27;20195;-66
2022/06/11 10:23:11;;;;;;;2.63;1.38;;;;;;;;;;5114234;27;20310;-66
2022/06/11 10:25:42;;;;;;;1.48;1.30;;;;;;;;;;5112471;27;20231;-66
2022/06/11 10:28:09;;;;;;;2.47;1.20;;;;;;;;;;5111195;27;20200;-65
2022/06/11 10:30:49;;;;;;;2.85;1.30;;;;;;;;;;5110576;28;20196;-65
2022/06/11 10:33:27;;;;;;;2.38;1.23;;;;;;;;;;5127531;27;20215;-64
2022/06/11 10:36:00;;;;;;;1.40;1.23;;;;;;;;;;5113735;27;20199;-66
2022/06/11 10:38:31;;;;;;;1.25;1.15;;;;;;;;;;5111171;27;20371;-65
2022/06/11 10:41:00;;;;;;;2.25;1.20;;;;;;;;;;5093742;28;20291;-66
2022/06/11 10:43:40;;;;;;;2.30;1.40;;;;;;;;;;5113474;27;20223;-66
2022/06/11 10:46:11;;;;;;;1.95;1.40;;;;;;;;;;5131177;27;20231;-65
2022/06/11 10:48:40;;;;;;;4.22;2.80;;;;;;;;;;5113035;27;20204;-66
2022/06/11 10:51:13;;;;;;;5.55;2.78;;;;;;;;;;5113641;27;20209;-65
2022/06/11 10:53:50;;;;;;;4.22;1.38;;;;;;;;;;5114091;27;20202;-64
2022/06/11 10:56:20;;;;;;;1.27;1.17;;;;;;;;;;5113787;27;20202;-66
2022/06/11 10:58:57;;;;;;;3.25;1.30;;;;;;;;;;5104937;27;20565;-65
2022/06/11 11:01:37;;;;;;;1.25;1.15;;;;;;;;;;5131411;27;20207;-64
2022/06/11 11:04:08;;;;;;;1.27;1.02;;;;;;;;;;5109376;28;20212;-65
2022/06/11 11:06:37;;;;;;;2.13;1.10;;;;;;;;;;5114383;27;20688;-66
2022/06/11 11:09:26;;;;;;;3.50;1.38;;;;;;;;;;5112667;27;20207;-65
2022/06/11 11:11:59;;;;;;;1.90;1.30;;;;;;;;;;5113122;27;20239;-65
2022/06/11 11:14:26;;;;;;;2.13;1.30;;;;;;;;;;5112911;27;20203;-65
2022/06/11 11:16:59;;;;;;;1.38;1.20;;;;;;;;;;5130939;27;20205;-66
2022/06/11 11:19:28;;;;;;;1.63;1.02;;;;;;;;;;5113342;27;20200;-65
2022/06/11 11:22:07;;;;;;;1.20;0.90;;;;;;;;;;5112104;27;20879;-66
2022/06/11 11:24:36;;;;;;;1.70;1.10;;;;;;;;;;5113260;27;20207;-65
2022/06/11 11:27:10;;;;;;;1.60;1.20;;;;;;;;;;5109137;28;20224;-66
2022/06/11 11:29:48;;;;;;;2.15;1.40;;;;;;;;;;5110439;28;20199;-66
2022/06/11 11:32:30;;;;;;;1.30;1.30;;;;;;;;;;5112968;27;20315;-65
2022/06/11 11:34:57;;;;;;;3.40;1.20;;;;;;;;;;5112581;27;20208;-66
2022/06/11 11:37:33;;;;;;;1.10;1.10;;;;;;;;;;5112864;27;20208;-66
2022/06/11 11:40:02;;;;;;;3.15;1.55;;;;;;;;;;5106716;27;20203;-65
2022/06/11 11:42:35;;;;;;;3.03;1.30;;;;;;;;;;5131292;27;20407;-65
2022/06/11 11:45:20;;;;;;;1.73;1.17;;;;;;;;;;5131107;27;20210;-66
2022/06/11 11:47:50;;;;;;;2.35;1.17;;;;;;;;;;5112294;27;20234;-66
2022/06/11 11:50:24;;;;;;;2.80;1.15;;;;;;;;;;5112873;28;20235;-65
2022/06/11 11:53:07;;;;;;;1.38;1.25;;;;;;;;;;5111597;28;20226;-66
2022/06/11 11:55:53;;;;;;;1.55;1.20;;;;;;;;;;5106278;28;20242;-65
2022/06/11 11:58:42;;;;;;;1.50;1.25;;;;;;;;;;5109331;28;20184;-66
2022/06/11 12:01:14;;;;;;;1.20;1.00;;;;;;;;;;5108922;28;20207;-65
2022/06/11 12:03:45;;;;;;;2.60;1.23;;;;;;;;;;5110143;28;20207;-65
2022/06/11 12:06:14;;;;;;;1.10;1.10;;;;;;;;;;5109384;28;20228;-66
2022/06/11 12:08:47;;;;;;;3.10;1.25;;;;;;;;;;5110897;28;20265;-66
2022/06/11 12:11:34;;;;;;;3.13;1.45;;;;;;;;;;5130225;28;20210;-66
2022/06/11 12:14:06;;;;;;;1.15;1.15;;;;;;;;;;5114876;27;20268;-66
2022/06/11 12:16:37;;;;;;;3.15;1.42;;;;;;;;;;5116231;27;20207;-66
2022/06/11 12:19:20;;;;;;;16.83;2.60;;;;;;;;;;5113075;28;20291;-64
2022/06/11 12:21:49;;;;;;;1.25;1.10;;;;;;;;;;5113238;28;20646;-65
2022/06/11 12:24:19;;;;;;;1.10;1.00;;;;;;;;;;5112617;28;20237;-66
2022/06/11 12:26:52;;;;;;;1.00;1.00;;;;;;;;;;5121208;27;20220;-65
2022/06/11 12:29:22;;;;;;;1.40;1.10;;;;;;;;;;5112633;28;20227;-65
2022/06/11 12:31:50;;;;;;;2.58;1.10;;;;;;;;;;5133418;27;20219;-65
2022/06/11 12:34:18;;;;;;;1.30;1.15;;;;;;;;;;5134417;27;20286;-66
2022/06/11 12:36:56;;;;;;;1.73;1.20;;;;;;;;;;5115977;27;20605;-67
2022/06/11 12:39:38;;;;;;;1.25;1.10;;;;;;;;;;5111887;28;20200;-65
2022/06/11 12:42:09;;;;;;;1.05;1.00;;;;;;;;;;5116020;27;20227;-66
2022/06/11 12:44:56;;;;;;;1.38;1.27;;;;;;;;;;5115669;27;20207;-64
2022/06/11 12:47:24;;;;;;;1.17;1.10;;;;;;;;;;5115104;27;20699;-65
2022/06/11 12:50:10;;;;;;;1.70;1.20;;;;;;;;;;5115781;27;20192;-66
2022/06/11 12:52:42;;;;;;;1.20;1.10;;;;;;;;;;5115582;27;20216;-66
2022/06/11 12:55:13;;;;;;;2.30;1.23;;;;;;;;;;5114314;27;20225;-66
2022/06/11 12:57:55;;;;;;;1.40;1.30;;;;;;;;;;5112049;28;20208;-65
2022/06/11 13:00:38;;;;;;;3.88;1.50;;;;;;;;;;5115208;27;20594;-65
2022/06/11 13:03:12;;;;;;;1.30;1.15;;;;;;;;;;5111492;28;20630;-65
2022/06/11 13:05:48;;;;;;;1.23;1.10;;;;;;;;;;5112442;27;20208;-65
2022/06/11 13:08:21;;;;;;;1.98;1.30;;;;;;;;;;5115581;27;20676;-65
2022/06/11 13:11:03;;;;;;;1.85;1.42;;;;;;;;;;5114513;27;20206;-65
2022/06/11 13:13:33;;;;;;;3.38;1.23;;;;;;;;;;5107519;27;20303;-66
2022/06/11 13:16:13;;;;;;;3.38;1.27;;;;;;;;;;5115733;27;20203;-66
2022/06/11 13:18:48;;;;;;;4.35;1.48;;;;;;;;;;5113538;27;20206;-66
2022/06/11 13:21:26;;;;;;;1.63;1.23;;;;;;;;;;5111670;28;20676;-65
2022/06/11 13:24:15;;;;;;;2.53;1.40;;;;;;;;;;5114306;27;20218;-66
2022/06/11 13:27:03;;;;;;;3.55;1.20;;;;;;;;;;5112927;27;20712;-66
2022/06/11 13:29:31;;;;;;;1.13;1.02;;;;;;;;;;5111890;28;20268;-66
2022/06/11 13:32:05;;;;;;;1.95;1.10;;;;;;;;;;5114447;27;20705;-66
2022/06/11 13:34:36;;;;;;;3.08;1.20;;;;;;;;;;5114543;27;20203;-66
2022/06/11 13:37:13;;;;;;;3.78;1.23;;;;;;;;;;5115288;27;20231;-66
2022/06/11 13:39:49;;;;;;;1.38;1.00;;;;;;;;;;5113531;27;20207;-66
2022/06/11 13:42:16;;;;;;;1.83;1.20;;;;;;;;;;5115495;27;20603;-65
2022/06/11 13:44:44;;;;;;;3.75;1.23;;;;;;;;;;5115029;27;20618;-65
2022/06/11 13:47:30;;;;;;;5.03;1.85;;;;;;;;;;5115040;27;20223;-65
2022/06/11 13:50:02;;;;;;;2.22;1.20;;;;;;;;;;5094818;28;20202;-66
2022/06/11 13:55:27;;;;;;;2.28;1.20;;;;;;;;;;5112989;28;20775;-66
2022/06/11 13:58:06;;;;;;;8.25;1.60;;;;;;;;;;5104403;27;20574;-65
2022/06/11 14:00:39;;;;;;;1.88;1.08;;;;;;;;;;5114845;27;20203;-65
2022/06/11 14:03:26;;;;;;;2.70;1.13;;;;;;;;;;5114755;27;20234;-66
2022/06/11 14:05:57;;;;;;;11.68;2.50;;;;;;;;;;5114736;27;20203;-66
2022/06/11 14:08:39;;;;;;;1.45;1.05;;;;;;;;;;5112433;27;20219;-66
2022/06/11 14:11:16;;;;;;;1.23;1.13;;;;;;;;;;5101260;28;20855;-66
2022/06/11 14:14:00;;;;;;;1.13;1.00;;;;;;;;;;5110488;28;20196;-65
2022/06/11 14:16:31;;;;;;;1.20;1.08;;;;;;;;;;5112284;27;20211;-66
2022/06/11 14:18:59;;;;;;;1.85;1.20;;;;;;;;;;5114604;27;20640;-66
2022/06/11 14:21:50;;;;;;;2.13;1.50;;;;;;;;;;5114273;27;20605;-65
2022/06/11 14:24:37;;;;;;;1.70;1.48;;;;;;;;;;5096355;28;20256;-65
2022/06/11 14:27:24;;;;;;;1.30;1.20;;;;;;;;;;5112702;27;20237;-66
2022/06/11 14:30:21;;;;;;;1.60;1.10;;;;;;;;;;5113753;27;20252;-66
2022/06/11 14:33:03;;;;;;;1.40;1.30;;;;;;;;;;5088844;27;20223;-67
2022/06/11 14:35:34;;;;;;;2.42;1.20;;;;;;;;;;5096278;28;20656;-66
2022/06/11 14:38:20;;;;;;;2.33;1.10;;;;;;;;;;5113302;27;20277;-66
2022/06/11 14:41:15;;;;;;;1.70;1.00;;;;;;;;;;5113818;27;20661;-65
2022/06/11 14:43:55;;;;;;;2.58;1.23;;;;;;;;;;5112887;27;20207;-66
2022/06/11 14:46:42;;;;;;;1.42;1.33;;;;;;;;;;5109893;28;20317;-66
2022/06/11 14:49:18;;;;;;;1.88;1.30;;;;;;;;;;5112097;27;20264;-66
2022/06/11 14:52:05;;;;;;;1.80;1.20;;;;;;;;;;5103669;28;20614;-66
2022/06/11 14:54:40;;;;;;;1.40;1.30;;;;;;;;;;5110683;28;20211;-66
2022/06/11 14:57:11;;;;;;;2.08;1.23;;;;;;;;;;5113454;27;20261;-66
2022/06/11 14:59:39;;;;;;;2.15;1.20;;;;;;;;;;5113441;27;20752;-67
2022/06/11 15:02:25;;;;;;;2.30;1.17;;;;;;;;;;5112889;27;20226;-67
2022/06/11 15:04:52;;;;;;;2.08;1.40;;;;;;;;;;5109090;28;20208;-66
2022/06/11 15:07:26;;;;;;;2.28;1.20;;;;;;;;;;5113209;27;20231;-66
2022/06/11 15:09:57;;;;;;;1.45;1.30;;;;;;;;;;5113886;27;20211;-66
2022/06/11 15:12:44;;;;;;;2.83;1.17;;;;;;;;;;5113286;27;20223;-67
2022/06/11 15:15:24;;;;;;;2.28;1.40;;;;;;;;;;5112452;27;20230;-66
2022/06/11 15:17:54;;;;;;;2.67;1.58;;;;;;;;;;5113314;27;20294;-66
2022/06/11 15:20:32;;;;;;;2.67;1.50;;;;;;;;;;5113005;27;20203;-66
2022/06/11 15:23:00;;;;;;;2.30;1.38;;;;;;;;;;5112772;27;20732;-67